sensor_id;sensor_type;location;lat;lon;timestamp;P1;durP1;ratioP1;P2;durP2;ratioP2
63203;SDS011;49297;43.210;27.914;2023-06-14T00:02:16;2.60;;;2.00;;
63203;SDS011;49297;43.210;27.914;2023-06-14T00:04:44;3.40;;;2.10;;
63203;SDS011;49297;43.210;27.914;2023-06-14T00:07:10;4.17;;;2.13;;
63203;SDS011;49297;43.210;27.914;2023-06-14T00:09:39;2.15;;;1.95;;
63203;SDS011;49297;43.210;27.914;2023-06-14T00:12:05;3.57;;;2.10;;
63203;SDS011;49297;43.210;27.914;2023-06-14T00:14:31;4.18;;;2.28;;
63203;SDS011;49297;43.210;27.914;2023-06-14T00:16:57;2.97;;;2.28;;
63203;SDS011;49297;43.210;27.914;2023-06-14T00:19:24;5.30;;;2.15;;
63203;SDS011;49297;43.210;27.914;2023-06-14T00:21:51;3.00;;;2.38;;
63203;SDS011;49297;43.210;27.914;2023-06-14T00:24:18;3.15;;;2.20;;
63203;SDS011;49297;43.210;27.914;2023-06-14T00:26:44;5.35;;;2.47;;
63203;SDS011;49297;43.210;27.914;2023-06-14T00:29:10;2.70;;;2.00;;
63203;SDS011;49297;43.210;27.914;2023-06-14T00:31:35;2.50;;;2.30;;
63203;SDS011;49297;43.210;27.914;2023-06-14T00:34:02;2.77;;;2.33;;
63203;SDS011;49297;43.210;27.914;2023-06-14T00:36:28;6.20;;;2.37;;
63203;SDS011;49297;43.210;27.914;2023-06-14T00:38:53;3.00;;;2.30;;
63203;SDS011;49297;43.210;27.914;2023-06-14T00:41:19;2.97;;;2.67;;
63203;SDS011;49297;43.210;27.914;2023-06-14T00:43:45;3.88;;;2.35;;
63203;SDS011;49297;43.210;27.914;2023-06-14T00:46:13;3.45;;;2.58;;
63203;SDS011;49297;43.210;27.914;2023-06-14T00:48:39;3.42;;;2.40;;
63203;SDS011;49297;43.210;27.914;2023-06-14T00:51:07;3.60;;;2.67;;
63203;SDS011;49297;43.210;27.914;2023-06-14T00:53:33;3.78;;;2.50;;
63203;SDS011;49297;43.210;27.914;2023-06-14T00:56:01;4.43;;;2.65;;
63203;SDS011;49297;43.210;27.914;2023-06-14T00:58:27;3.58;;;2.58;;
63203;SDS011;49297;43.210;27.914;2023-06-14T01:00:54;2.97;;;2.58;;
63203;SDS011;49297;43.210;27.914;2023-06-14T01:03:20;2.78;;;2.47;;
63203;SDS011;49297;43.210;27.914;2023-06-14T01:05:49;2.58;;;2.38;;
63203;SDS011;49297;43.210;27.914;2023-06-14T01:08:31;3.60;;;2.72;;
63203;SDS011;49297;43.210;27.914;2023-06-14T01:11:26;2.47;;;2.28;;
63203;SDS011;49297;43.210;27.914;2023-06-14T01:13:57;4.45;;;4.05;;
63203;SDS011;49297;43.210;27.914;2023-06-14T01:16:28;6.38;;;5.20;;
63203;SDS011;49297;43.210;27.914;2023-06-14T01:18:55;6.10;;;5.53;;
63203;SDS011;49297;43.210;27.914;2023-06-14T01:21:23;4.45;;;3.92;;
63203;SDS011;49297;43.210;27.914;2023-06-14T01:23:51;5.30;;;3.65;;
63203;SDS011;49297;43.210;27.914;2023-06-14T01:26:27;5.70;;;3.63;;
63203;SDS011;49297;43.210;27.914;2023-06-14T01:28:54;4.25;;;3.58;;
63203;SDS011;49297;43.210;27.914;2023-06-14T01:31:23;6.33;;;4.33;;
63203;SDS011;49297;43.210;27.914;2023-06-14T01:33:52;13.23;;;4.35;;
63203;SDS011;49297;43.210;27.914;2023-06-14T01:36:19;5.28;;;4.10;;
63203;SDS011;49297;43.210;27.914;2023-06-14T01:38:46;4.35;;;3.15;;
63203;SDS011;49297;43.210;27.914;2023-06-14T01:41:15;5.32;;;3.88;;
63203;SDS011;49297;43.210;27.914;2023-06-14T01:43:43;4.20;;;3.53;;
63203;SDS011;49297;43.210;27.914;2023-06-14T01:46:11;3.75;;;3.30;;
63203;SDS011;49297;43.210;27.914;2023-06-14T01:48:38;5.40;;;3.40;;
63203;SDS011;49297;43.210;27.914;2023-06-14T01:51:04;4.60;;;3.55;;
63203;SDS011;49297;43.210;27.914;2023-06-14T01:53:30;5.03;;;3.13;;
63203;SDS011;49297;43.210;27.914;2023-06-14T01:55:58;4.32;;;3.22;;
63203;SDS011;49297;43.210;27.914;2023-06-14T01:58:24;4.75;;;3.65;;
63203;SDS011;49297;43.210;27.914;2023-06-14T02:00:52;2.90;;;2.63;;
63203;SDS011;49297;43.210;27.914;2023-06-14T02:03:21;7.00;;;3.65;;
63203;SDS011;49297;43.210;27.914;2023-06-14T02:10:38;7.45;;;4.28;;
63203;SDS011;49297;43.210;27.914;2023-06-14T02:13:05;5.93;;;4.70;;
63203;SDS011;49297;43.210;27.914;2023-06-14T02:15:43;7.10;;;4.70;;
63203;SDS011;49297;43.210;27.914;2023-06-14T02:18:15;7.05;;;5.40;;
63203;SDS011;49297;43.210;27.914;2023-06-14T02:20:41;8.80;;;5.30;;
63203;SDS011;49297;43.210;27.914;2023-06-14T02:23:07;6.53;;;5.93;;
63203;SDS011;49297;43.210;27.914;2023-06-14T02:25:34;5.80;;;5.00;;
63203;SDS011;49297;43.210;27.914;2023-06-14T02:28:00;7.80;;;5.30;;
63203;SDS011;49297;43.210;27.914;2023-06-14T02:30:26;5.75;;;5.10;;
63203;SDS011;49297;43.210;27.914;2023-06-14T02:32:53;7.10;;;5.00;;
63203;SDS011;49297;43.210;27.914;2023-06-14T02:45:03;6.47;;;5.80;;
63203;SDS011;49297;43.210;27.914;2023-06-14T02:47:29;8.20;;;6.20;;
63203;SDS011;49297;43.210;27.914;2023-06-14T02:49:55;7.00;;;5.70;;
63203;SDS011;49297;43.210;27.914;2023-06-14T02:52:21;10.70;;;5.73;;
63203;SDS011;49297;43.210;27.914;2023-06-14T02:54:47;5.78;;;4.70;;
63203;SDS011;49297;43.210;27.914;2023-06-14T02:57:13;5.75;;;4.70;;
63203;SDS011;49297;43.210;27.914;2023-06-14T02:59:39;7.33;;;5.20;;
63203;SDS011;49297;43.210;27.914;2023-06-14T03:02:05;4.97;;;4.45;;
63203;SDS011;49297;43.210;27.914;2023-06-14T03:04:31;5.15;;;4.63;;
63203;SDS011;49297;43.210;27.914;2023-06-14T03:07:03;6.65;;;4.80;;
63203;SDS011;49297;43.210;27.914;2023-06-14T03:09:35;4.78;;;4.28;;
63203;SDS011;49297;43.210;27.914;2023-06-14T03:12:03;6.72;;;4.20;;
63203;SDS011;49297;43.210;27.914;2023-06-14T03:14:38;6.47;;;3.70;;
63203;SDS011;49297;43.210;27.914;2023-06-14T03:17:05;8.00;;;4.15;;
63203;SDS011;49297;43.210;27.914;2023-06-14T03:19:30;4.70;;;4.20;;
63203;SDS011;49297;43.210;27.914;2023-06-14T03:21:56;7.53;;;5.40;;
63203;SDS011;49297;43.210;27.914;2023-06-14T03:24:25;8.80;;;5.85;;
63203;SDS011;49297;43.210;27.914;2023-06-14T03:26:53;7.47;;;6.40;;
63203;SDS011;49297;43.210;27.914;2023-06-14T03:29:21;9.32;;;6.95;;
63203;SDS011;49297;43.210;27.914;2023-06-14T03:32:00;6.47;;;5.88;;
63203;SDS011;49297;43.210;27.914;2023-06-14T03:34:28;7.07;;;6.38;;
63203;SDS011;49297;43.210;27.914;2023-06-14T03:36:54;7.00;;;5.25;;
63203;SDS011;49297;43.210;27.914;2023-06-14T03:39:23;8.38;;;5.88;;
63203;SDS011;49297;43.210;27.914;2023-06-14T03:41:49;5.78;;;5.25;;
63203;SDS011;49297;43.210;27.914;2023-06-14T03:44:17;8.90;;;6.50;;
63203;SDS011;49297;43.210;27.914;2023-06-14T03:46:45;5.75;;;5.25;;
63203;SDS011;49297;43.210;27.914;2023-06-14T03:49:13;6.22;;;5.53;;
63203;SDS011;49297;43.210;27.914;2023-06-14T03:51:40;6.78;;;6.10;;
63203;SDS011;49297;43.210;27.914;2023-06-14T03:54:06;8.07;;;6.80;;
63203;SDS011;49297;43.210;27.914;2023-06-14T03:56:33;6.78;;;5.85;;
63203;SDS011;49297;43.210;27.914;2023-06-14T03:58:59;6.53;;;5.93;;
63203;SDS011;49297;43.210;27.914;2023-06-14T04:01:27;6.45;;;5.85;;
63203;SDS011;49297;43.210;27.914;2023-06-14T04:03:56;9.82;;;8.82;;
63203;SDS011;49297;43.210;27.914;2023-06-14T04:06:22;7.82;;;6.60;;
63203;SDS011;49297;43.210;27.914;2023-06-14T04:08:51;6.53;;;5.90;;
63203;SDS011;49297;43.210;27.914;2023-06-14T04:11:17;7.50;;;6.80;;
63203;SDS011;49297;43.210;27.914;2023-06-14T04:13:43;9.57;;;7.97;;
63203;SDS011;49297;43.210;27.914;2023-06-14T04:16:10;12.63;;;9.77;;
63203;SDS011;49297;43.210;27.914;2023-06-14T04:18:36;13.48;;;10.18;;
63203;SDS011;49297;43.210;27.914;2023-06-14T04:21:02;13.25;;;11.93;;
63203;SDS011;49297;43.210;27.914;2023-06-14T04:23:28;12.02;;;10.80;;
63203;SDS011;49297;43.210;27.914;2023-06-14T04:25:57;13.73;;;11.35;;
63203;SDS011;49297;43.210;27.914;2023-06-14T04:28:28;18.75;;;11.10;;
63203;SDS011;49297;43.210;27.914;2023-06-14T04:30:54;15.95;;;14.10;;
63203;SDS011;49297;43.210;27.914;2023-06-14T04:33:20;15.07;;;13.27;;
63203;SDS011;49297;43.210;27.914;2023-06-14T04:35:46;11.73;;;10.60;;
63203;SDS011;49297;43.210;27.914;2023-06-14T04:38:19;12.43;;;9.25;;
63203;SDS011;49297;43.210;27.914;2023-06-14T04:40:49;12.52;;;8.57;;
63203;SDS011;49297;43.210;27.914;2023-06-14T04:43:18;11.32;;;9.07;;
63203;SDS011;49297;43.210;27.914;2023-06-14T04:45:52;9.48;;;8.43;;
63203;SDS011;49297;43.210;27.914;2023-06-14T04:48:20;9.30;;;8.40;;
63203;SDS011;49297;43.210;27.914;2023-06-14T04:50:46;12.37;;;8.27;;
63203;SDS011;49297;43.210;27.914;2023-06-14T04:53:12;11.38;;;8.60;;
63203;SDS011;49297;43.210;27.914;2023-06-14T04:55:39;10.45;;;7.50;;
63203;SDS011;49297;43.210;27.914;2023-06-14T04:58:10;9.27;;;8.10;;
63203;SDS011;49297;43.210;27.914;2023-06-14T05:00:38;8.03;;;7.33;;
63203;SDS011;49297;43.210;27.914;2023-06-14T05:03:05;10.02;;;8.02;;
63203;SDS011;49297;43.210;27.914;2023-06-14T05:05:33;7.88;;;7.18;;
63203;SDS011;49297;43.210;27.914;2023-06-14T05:08:00;7.88;;;7.18;;
63203;SDS011;49297;43.210;27.914;2023-06-14T05:10:26;11.98;;;7.38;;
63203;SDS011;49297;43.210;27.914;2023-06-14T05:12:52;11.27;;;7.10;;
63203;SDS011;49297;43.210;27.914;2023-06-14T05:15:19;7.88;;;7.07;;
63203;SDS011;49297;43.210;27.914;2023-06-14T05:17:46;8.65;;;6.45;;
63203;SDS011;49297;43.210;27.914;2023-06-14T05:20:18;9.75;;;6.72;;
63203;SDS011;49297;43.210;27.914;2023-06-14T05:22:45;7.13;;;6.35;;
63203;SDS011;49297;43.210;27.914;2023-06-14T05:25:12;8.30;;;7.60;;
63203;SDS011;49297;43.210;27.914;2023-06-14T05:27:39;7.33;;;6.63;;
63203;SDS011;49297;43.210;27.914;2023-06-14T05:30:07;7.75;;;6.50;;
63203;SDS011;49297;43.210;27.914;2023-06-14T05:32:34;11.50;;;7.53;;
63203;SDS011;49297;43.210;27.914;2023-06-14T05:34:59;7.37;;;6.70;;
63203;SDS011;49297;43.210;27.914;2023-06-14T05:37:25;11.00;;;8.20;;
63203;SDS011;49297;43.210;27.914;2023-06-14T05:39:51;8.90;;;8.13;;
63203;SDS011;49297;43.210;27.914;2023-06-14T05:42:17;11.10;;;8.70;;
63203;SDS011;49297;43.210;27.914;2023-06-14T05:44:49;10.23;;;8.50;;
63203;SDS011;49297;43.210;27.914;2023-06-14T05:47:15;13.47;;;8.73;;
63203;SDS011;49297;43.210;27.914;2023-06-14T05:49:41;9.00;;;8.13;;
63203;SDS011;49297;43.210;27.914;2023-06-14T05:52:09;9.32;;;8.43;;
63203;SDS011;49297;43.210;27.914;2023-06-14T05:54:35;10.15;;;8.00;;
63203;SDS011;49297;43.210;27.914;2023-06-14T05:57:01;9.13;;;7.90;;
63203;SDS011;49297;43.210;27.914;2023-06-14T05:59:29;11.90;;;8.52;;
63203;SDS011;49297;43.210;27.914;2023-06-14T06:01:54;9.05;;;6.50;;
63203;SDS011;49297;43.210;27.914;2023-06-14T06:04:22;7.18;;;6.47;;
63203;SDS011;49297;43.210;27.914;2023-06-14T06:06:51;9.73;;;7.10;;
63203;SDS011;49297;43.210;27.914;2023-06-14T06:09:16;10.48;;;6.70;;
63203;SDS011;49297;43.210;27.914;2023-06-14T06:11:42;7.68;;;6.95;;
63203;SDS011;49297;43.210;27.914;2023-06-14T06:14:08;8.07;;;6.97;;
63203;SDS011;49297;43.210;27.914;2023-06-14T06:16:34;7.88;;;6.93;;
63203;SDS011;49297;43.210;27.914;2023-06-14T06:19:03;9.20;;;8.32;;
63203;SDS011;49297;43.210;27.914;2023-06-14T06:21:30;12.43;;;8.35;;
63203;SDS011;49297;43.210;27.914;2023-06-14T06:23:57;11.15;;;7.70;;
63203;SDS011;49297;43.210;27.914;2023-06-14T06:26:23;10.85;;;7.40;;
63203;SDS011;49297;43.210;27.914;2023-06-14T06:28:51;7.97;;;7.15;;
63203;SDS011;49297;43.210;27.914;2023-06-14T06:31:18;7.32;;;6.68;;
63203;SDS011;49297;43.210;27.914;2023-06-14T06:33:45;12.00;;;7.47;;
63203;SDS011;49297;43.210;27.914;2023-06-14T06:38:53;6.73;;;6.13;;
63203;SDS011;49297;43.210;27.914;2023-06-14T06:41:19;9.10;;;7.90;;
63203;SDS011;49297;43.210;27.914;2023-06-14T06:43:46;8.27;;;6.47;;
63203;SDS011;49297;43.210;27.914;2023-06-14T06:46:12;7.22;;;6.13;;
63203;SDS011;49297;43.210;27.914;2023-06-14T06:48:39;9.80;;;7.32;;
63203;SDS011;49297;43.210;27.914;2023-06-14T06:51:05;7.95;;;7.22;;
63203;SDS011;49297;43.210;27.914;2023-06-14T06:53:30;10.77;;;7.63;;
63203;SDS011;49297;43.210;27.914;2023-06-14T06:55:57;10.68;;;7.00;;
63203;SDS011;49297;43.210;27.914;2023-06-14T06:58:23;10.35;;;5.65;;
63203;SDS011;49297;43.210;27.914;2023-06-14T07:00:50;5.40;;;4.63;;
63203;SDS011;49297;43.210;27.914;2023-06-14T07:03:16;7.00;;;3.80;;
63203;SDS011;49297;43.210;27.914;2023-06-14T07:05:43;5.95;;;3.10;;
63203;SDS011;49297;43.210;27.914;2023-06-14T07:08:09;3.35;;;3.13;;
63203;SDS011;49297;43.210;27.914;2023-06-14T07:10:37;4.30;;;3.60;;
63203;SDS011;49297;43.210;27.914;2023-06-14T07:13:03;4.50;;;2.92;;
63203;SDS011;49297;43.210;27.914;2023-06-14T07:15:29;3.97;;;2.88;;
63203;SDS011;49297;43.210;27.914;2023-06-14T07:17:55;6.25;;;3.97;;
63203;SDS011;49297;43.210;27.914;2023-06-14T07:20:24;5.80;;;3.65;;
63203;SDS011;49297;43.210;27.914;2023-06-14T07:22:51;5.20;;;3.83;;
63203;SDS011;49297;43.210;27.914;2023-06-14T07:25:17;5.25;;;4.03;;
63203;SDS011;49297;43.210;27.914;2023-06-14T07:27:45;5.05;;;2.97;;
63203;SDS011;49297;43.210;27.914;2023-06-14T07:30:11;6.68;;;3.22;;
63203;SDS011;49297;43.210;27.914;2023-06-14T07:32:38;6.57;;;3.50;;
63203;SDS011;49297;43.210;27.914;2023-06-14T07:35:04;8.15;;;3.13;;
63203;SDS011;49297;43.210;27.914;2023-06-14T07:37:36;4.20;;;2.97;;
63203;SDS011;49297;43.210;27.914;2023-06-14T07:40:03;7.57;;;3.73;;
63203;SDS011;49297;43.210;27.914;2023-06-14T07:42:33;7.00;;;3.78;;
63203;SDS011;49297;43.210;27.914;2023-06-14T07:45:03;9.20;;;3.55;;
63203;SDS011;49297;43.210;27.914;2023-06-14T07:47:30;3.78;;;2.65;;
63203;SDS011;49297;43.210;27.914;2023-06-14T07:49:57;6.28;;;2.42;;
63203;SDS011;49297;43.210;27.914;2023-06-14T07:52:23;2.72;;;2.53;;
63203;SDS011;49297;43.210;27.914;2023-06-14T07:54:49;7.75;;;2.70;;
63203;SDS011;49297;43.210;27.914;2023-06-14T07:57:16;68.22;;;12.48;;
63203;SDS011;49297;43.210;27.914;2023-06-14T07:59:42;21.70;;;6.27;;
63203;SDS011;49297;43.210;27.914;2023-06-14T08:02:08;39.70;;;9.67;;
63203;SDS011;49297;43.210;27.914;2023-06-14T08:04:34;4.07;;;2.70;;
63203;SDS011;49297;43.210;27.914;2023-06-14T08:07:00;3.50;;;2.05;;
63203;SDS011;49297;43.210;27.914;2023-06-14T08:09:27;14.48;;;5.72;;
63203;SDS011;49297;43.210;27.914;2023-06-14T08:11:54;6.28;;;2.40;;
63203;SDS011;49297;43.210;27.914;2023-06-14T08:14:21;4.57;;;3.53;;
63203;SDS011;49297;43.210;27.914;2023-06-14T08:16:46;2.78;;;2.58;;
63203;SDS011;49297;43.210;27.914;2023-06-14T08:19:12;3.50;;;2.17;;
63203;SDS011;49297;43.210;27.914;2023-06-14T08:21:39;3.63;;;2.93;;
63203;SDS011;49297;43.210;27.914;2023-06-14T08:24:05;3.38;;;2.42;;
63203;SDS011;49297;43.210;27.914;2023-06-14T08:26:31;5.28;;;2.25;;
63203;SDS011;49297;43.210;27.914;2023-06-14T08:28:58;5.30;;;2.20;;
63203;SDS011;49297;43.210;27.914;2023-06-14T08:31:24;3.53;;;3.00;;
63203;SDS011;49297;43.210;27.914;2023-06-14T08:33:50;4.03;;;2.83;;
63203;SDS011;49297;43.210;27.914;2023-06-14T08:36:16;3.97;;;2.58;;
63203;SDS011;49297;43.210;27.914;2023-06-14T08:38:44;3.83;;;2.53;;
63203;SDS011;49297;43.210;27.914;2023-06-14T08:41:11;8.40;;;3.08;;
63203;SDS011;49297;43.210;27.914;2023-06-14T08:43:41;3.40;;;2.30;;
63203;SDS011;49297;43.210;27.914;2023-06-14T08:46:08;4.60;;;2.72;;
63203;SDS011;49297;43.210;27.914;2023-06-14T08:48:37;3.30;;;2.28;;
63203;SDS011;49297;43.210;27.914;2023-06-14T08:51:05;4.30;;;2.97;;
63203;SDS011;49297;43.210;27.914;2023-06-14T08:53:31;4.50;;;2.40;;
63203;SDS011;49297;43.210;27.914;2023-06-14T08:56:00;3.72;;;2.92;;
63203;SDS011;49297;43.210;27.914;2023-06-14T08:58:28;4.50;;;3.05;;
63203;SDS011;49297;43.210;27.914;2023-06-14T09:00:59;5.15;;;2.80;;
63203;SDS011;49297;43.210;27.914;2023-06-14T09:03:28;7.53;;;3.72;;
63203;SDS011;49297;43.210;27.914;2023-06-14T09:05:59;7.25;;;2.88;;
63203;SDS011;49297;43.210;27.914;2023-06-14T09:08:29;4.60;;;3.28;;
63203;SDS011;49297;43.210;27.914;2023-06-14T09:10:57;3.60;;;3.30;;
63203;SDS011;49297;43.210;27.914;2023-06-14T09:13:26;7.30;;;3.70;;
63203;SDS011;49297;43.210;27.914;2023-06-14T09:15:52;3.15;;;2.95;;
63203;SDS011;49297;43.210;27.914;2023-06-14T09:18:18;3.10;;;2.83;;
63203;SDS011;49297;43.210;27.914;2023-06-14T09:20:48;6.10;;;3.58;;
63203;SDS011;49297;43.210;27.914;2023-06-14T09:23:17;5.53;;;3.47;;
63203;SDS011;49297;43.210;27.914;2023-06-14T09:25:49;4.37;;;3.23;;
63203;SDS011;49297;43.210;27.914;2023-06-14T09:28:17;5.68;;;3.45;;
63203;SDS011;49297;43.210;27.914;2023-06-14T09:30:44;4.28;;;3.88;;
63203;SDS011;49297;43.210;27.914;2023-06-14T09:33:11;4.78;;;3.70;;
63203;SDS011;49297;43.210;27.914;2023-06-14T09:35:50;3.25;;;2.95;;
63203;SDS011;49297;43.210;27.914;2023-06-14T09:38:17;8.20;;;3.45;;
63203;SDS011;49297;43.210;27.914;2023-06-14T09:40:42;4.85;;;3.75;;
63203;SDS011;49297;43.210;27.914;2023-06-14T09:43:09;3.97;;;3.57;;
63203;SDS011;49297;43.210;27.914;2023-06-14T09:45:35;3.65;;;3.30;;
63203;SDS011;49297;43.210;27.914;2023-06-14T09:48:01;4.18;;;3.78;;
63203;SDS011;49297;43.210;27.914;2023-06-14T09:50:27;4.87;;;3.70;;
63203;SDS011;49297;43.210;27.914;2023-06-14T09:52:56;5.13;;;3.90;;
63203;SDS011;49297;43.210;27.914;2023-06-14T09:55:28;4.15;;;3.50;;
63203;SDS011;49297;43.210;27.914;2023-06-14T09:57:56;3.92;;;3.03;;
63203;SDS011;49297;43.210;27.914;2023-06-14T10:00:26;3.35;;;2.25;;
63203;SDS011;49297;43.210;27.914;2023-06-14T10:02:58;3.90;;;3.10;;
63203;SDS011;49297;43.210;27.914;2023-06-14T10:05:29;5.25;;;3.45;;
63203;SDS011;49297;43.210;27.914;2023-06-14T10:07:59;3.38;;;2.58;;
63203;SDS011;49297;43.210;27.914;2023-06-14T10:10:30;3.58;;;3.28;;
63203;SDS011;49297;43.210;27.914;2023-06-14T10:12:57;3.20;;;2.90;;
63203;SDS011;49297;43.210;27.914;2023-06-14T10:24:09;3.72;;;2.85;;
63203;SDS011;49297;43.210;27.914;2023-06-14T10:26:51;2.92;;;2.40;;
63203;SDS011;49297;43.210;27.914;2023-06-14T10:29:19;7.47;;;3.13;;
63203;SDS011;49297;43.210;27.914;2023-06-14T10:34:21;5.82;;;3.30;;
63203;SDS011;49297;43.210;27.914;2023-06-14T10:37:04;2.83;;;2.63;;
63203;SDS011;49297;43.210;27.914;2023-06-14T10:39:44;3.42;;;2.40;;
63203;SDS011;49297;43.210;27.914;2023-06-14T10:42:11;2.40;;;2.20;;
63203;SDS011;49297;43.210;27.914;2023-06-14T10:44:39;5.68;;;3.17;;
63203;SDS011;49297;43.210;27.914;2023-06-14T10:47:08;5.97;;;2.97;;
63203;SDS011;49297;43.210;27.914;2023-06-14T10:49:54;3.63;;;2.30;;
63203;SDS011;49297;43.210;27.914;2023-06-14T10:52:22;6.63;;;3.50;;
63203;SDS011;49297;43.210;27.914;2023-06-14T10:55:04;2.65;;;2.45;;
63203;SDS011;49297;43.210;27.914;2023-06-14T10:57:47;3.47;;;3.17;;
63203;SDS011;49297;43.210;27.914;2023-06-14T11:00:18;5.78;;;3.58;;
63203;SDS011;49297;43.210;27.914;2023-06-14T11:05:48;2.92;;;2.72;;
63203;SDS011;49297;43.210;27.914;2023-06-14T11:08:27;6.85;;;3.28;;
63203;SDS011;49297;43.210;27.914;2023-06-14T11:11:14;2.97;;;2.78;;
63203;SDS011;49297;43.210;27.914;2023-06-14T11:13:42;3.30;;;2.80;;
63203;SDS011;49297;43.210;27.914;2023-06-14T11:16:14;3.15;;;2.67;;
63203;SDS011;49297;43.210;27.914;2023-06-14T11:18:42;10.23;;;3.47;;
63203;SDS011;49297;43.210;27.914;2023-06-14T11:21:10;2.90;;;2.65;;
63203;SDS011;49297;43.210;27.914;2023-06-14T11:23:37;4.80;;;2.83;;
63203;SDS011;49297;43.210;27.914;2023-06-14T11:26:03;3.50;;;3.10;;
63203;SDS011;49297;43.210;27.914;2023-06-14T11:28:44;6.30;;;3.45;;
63203;SDS011;49297;43.210;27.914;2023-06-14T11:31:11;4.13;;;3.08;;
63203;SDS011;49297;43.210;27.914;2023-06-14T11:33:36;3.33;;;2.90;;
63203;SDS011;49297;43.210;27.914;2023-06-14T11:36:03;3.35;;;3.05;;
63203;SDS011;49297;43.210;27.914;2023-06-14T11:38:36;5.80;;;4.03;;
63203;SDS011;49297;43.210;27.914;2023-06-14T11:41:02;3.85;;;2.85;;
63203;SDS011;49297;43.210;27.914;2023-06-14T11:43:28;5.18;;;3.15;;
63203;SDS011;49297;43.210;27.914;2023-06-14T11:45:57;4.07;;;3.20;;
63203;SDS011;49297;43.210;27.914;2023-06-14T11:48:35;4.27;;;3.30;;
63203;SDS011;49297;43.210;27.914;2023-06-14T11:51:06;2.95;;;2.67;;
63203;SDS011;49297;43.210;27.914;2023-06-14T11:53:32;3.42;;;3.13;;
63203;SDS011;49297;43.210;27.914;2023-06-14T11:55:58;2.95;;;2.67;;
63203;SDS011;49297;43.210;27.914;2023-06-14T11:58:25;3.27;;;2.97;;
63203;SDS011;49297;43.210;27.914;2023-06-14T12:00:53;3.47;;;2.93;;
63203;SDS011;49297;43.210;27.914;2023-06-14T12:03:22;5.13;;;2.92;;
63203;SDS011;49297;43.210;27.914;2023-06-14T12:06:01;3.67;;;3.38;;
63203;SDS011;49297;43.210;27.914;2023-06-14T12:08:38;4.65;;;3.60;;
63203;SDS011;49297;43.210;27.914;2023-06-14T12:11:12;5.50;;;3.22;;
63203;SDS011;49297;43.210;27.914;2023-06-14T12:13:40;4.78;;;2.90;;
63203;SDS011;49297;43.210;27.914;2023-06-14T12:16:08;4.03;;;3.60;;
63203;SDS011;49297;43.210;27.914;2023-06-14T12:18:35;5.38;;;3.70;;
63203;SDS011;49297;43.210;27.914;2023-06-14T12:21:06;3.35;;;3.05;;
63203;SDS011;49297;43.210;27.914;2023-06-14T12:26:16;4.90;;;3.93;;
63203;SDS011;49297;43.210;27.914;2023-06-14T12:28:47;5.43;;;4.93;;
63203;SDS011;49297;43.210;27.914;2023-06-14T12:31:15;7.85;;;6.75;;
63203;SDS011;49297;43.210;27.914;2023-06-14T12:33:42;5.88;;;5.28;;
63203;SDS011;49297;43.210;27.914;2023-06-14T12:36:10;10.18;;;5.82;;
63203;SDS011;49297;43.210;27.914;2023-06-14T12:38:38;6.70;;;5.60;;
63203;SDS011;49297;43.210;27.914;2023-06-14T12:41:04;8.52;;;5.57;;
63203;SDS011;49297;43.210;27.914;2023-06-14T12:43:30;6.85;;;6.05;;
63203;SDS011;49297;43.210;27.914;2023-06-14T12:45:56;5.88;;;5.32;;
63203;SDS011;49297;43.210;27.914;2023-06-14T12:48:22;5.60;;;5.10;;
63203;SDS011;49297;43.210;27.914;2023-06-14T12:50:49;6.15;;;5.55;;
63203;SDS011;49297;43.210;27.914;2023-06-14T12:53:15;10.60;;;6.03;;
63203;SDS011;49297;43.210;27.914;2023-06-14T12:55:44;8.48;;;6.28;;
63203;SDS011;49297;43.210;27.914;2023-06-14T12:58:11;7.13;;;6.45;;
63203;SDS011;49297;43.210;27.914;2023-06-14T13:00:41;6.18;;;5.57;;
63203;SDS011;49297;43.210;27.914;2023-06-14T13:03:10;6.03;;;5.45;;
63203;SDS011;49297;43.210;27.914;2023-06-14T13:05:35;6.72;;;6.10;;
63203;SDS011;49297;43.210;27.914;2023-06-14T13:08:02;6.13;;;5.53;;
63203;SDS011;49297;43.210;27.914;2023-06-14T13:10:28;7.15;;;6.47;;
63203;SDS011;49297;43.210;27.914;2023-06-14T13:12:54;8.45;;;7.03;;
63203;SDS011;49297;43.210;27.914;2023-06-14T13:15:20;9.40;;;7.13;;
63203;SDS011;49297;43.210;27.914;2023-06-14T13:17:46;7.83;;;7.13;;
63203;SDS011;49297;43.210;27.914;2023-06-14T13:20:13;9.07;;;6.30;;
63203;SDS011;49297;43.210;27.914;2023-06-14T13:22:40;6.40;;;5.80;;
63203;SDS011;49297;43.210;27.914;2023-06-14T13:25:06;5.55;;;5.05;;
63203;SDS011;49297;43.210;27.914;2023-06-14T13:27:33;7.20;;;5.15;;
63203;SDS011;49297;43.210;27.914;2023-06-14T13:30:00;6.40;;;5.83;;
63203;SDS011;49297;43.210;27.914;2023-06-14T13:32:26;6.50;;;5.90;;
63203;SDS011;49297;43.210;27.914;2023-06-14T13:34:52;7.47;;;6.75;;
63203;SDS011;49297;43.210;27.914;2023-06-14T13:37:18;5.15;;;4.65;;
63203;SDS011;49297;43.210;27.914;2023-06-14T13:39:44;6.72;;;6.13;;
63203;SDS011;49297;43.210;27.914;2023-06-14T13:42:10;6.28;;;5.78;;
63203;SDS011;49297;43.210;27.914;2023-06-14T13:44:36;6.22;;;5.63;;
63203;SDS011;49297;43.210;27.914;2023-06-14T13:47:04;7.17;;;5.40;;
63203;SDS011;49297;43.210;27.914;2023-06-14T13:49:31;9.93;;;6.40;;
63203;SDS011;49297;43.210;27.914;2023-06-14T13:51:56;6.32;;;5.72;;
63203;SDS011;49297;43.210;27.914;2023-06-14T13:54:22;8.07;;;7.35;;
63203;SDS011;49297;43.210;27.914;2023-06-14T13:56:48;6.97;;;6.37;;
63203;SDS011;49297;43.210;27.914;2023-06-14T13:59:15;7.18;;;6.43;;
63203;SDS011;49297;43.210;27.914;2023-06-14T14:01:43;6.22;;;5.65;;
63203;SDS011;49297;43.210;27.914;2023-06-14T14:04:08;7.88;;;6.57;;
63203;SDS011;49297;43.210;27.914;2023-06-14T14:06:35;9.57;;;7.10;;
63203;SDS011;49297;43.210;27.914;2023-06-14T14:09:01;8.98;;;6.35;;
63203;SDS011;49297;43.210;27.914;2023-06-14T14:11:27;7.13;;;6.57;;
63203;SDS011;49297;43.210;27.914;2023-06-14T14:13:53;8.20;;;7.35;;
63203;SDS011;49297;43.210;27.914;2023-06-14T14:16:20;7.95;;;7.20;;
63203;SDS011;49297;43.210;27.914;2023-06-14T14:18:48;7.57;;;6.90;;
63203;SDS011;49297;43.210;27.914;2023-06-14T14:21:14;7.65;;;6.95;;
63203;SDS011;49297;43.210;27.914;2023-06-14T14:23:42;8.60;;;7.67;;
63203;SDS011;49297;43.210;27.914;2023-06-14T14:26:09;7.25;;;6.70;;
63203;SDS011;49297;43.210;27.914;2023-06-14T14:28:36;7.82;;;7.13;;
63203;SDS011;49297;43.210;27.914;2023-06-14T14:31:02;7.60;;;6.88;;
63203;SDS011;49297;43.210;27.914;2023-06-14T14:33:28;7.70;;;7.00;;
63203;SDS011;49297;43.210;27.914;2023-06-14T14:35:53;8.10;;;7.30;;
63203;SDS011;49297;43.210;27.914;2023-06-14T14:38:20;8.03;;;7.23;;
63203;SDS011;49297;43.210;27.914;2023-06-14T14:40:48;9.40;;;7.18;;
63203;SDS011;49297;43.210;27.914;2023-06-14T14:43:14;8.32;;;7.55;;
63203;SDS011;49297;43.210;27.914;2023-06-14T14:45:40;7.75;;;6.95;;
63203;SDS011;49297;43.210;27.914;2023-06-14T14:48:06;7.78;;;7.05;;
63203;SDS011;49297;43.210;27.914;2023-06-14T14:50:33;10.27;;;7.50;;
63203;SDS011;49297;43.210;27.914;2023-06-14T14:52:59;9.32;;;7.00;;
63203;SDS011;49297;43.210;27.914;2023-06-14T14:55:25;8.40;;;7.70;;
63203;SDS011;49297;43.210;27.914;2023-06-14T14:57:51;9.75;;;7.40;;
63203;SDS011;49297;43.210;27.914;2023-06-14T15:00:18;8.30;;;7.50;;
63203;SDS011;49297;43.210;27.914;2023-06-14T15:02:44;7.65;;;7.00;;
63203;SDS011;49297;43.210;27.914;2023-06-14T15:05:11;8.57;;;7.90;;
63203;SDS011;49297;43.210;27.914;2023-06-14T15:07:37;8.05;;;7.28;;
63203;SDS011;49297;43.210;27.914;2023-06-14T15:10:05;7.88;;;7.28;;
63203;SDS011;49297;43.210;27.914;2023-06-14T15:12:32;8.68;;;7.95;;